createdAt,value
2022-12-08T00:02:00.323Z,72.98
2022-12-08T00:04:28.925Z,73.10
2022-12-08T00:07:16.167Z,73.05
2022-12-08T00:09:44.447Z,73.11
2022-12-08T00:12:17.645Z,73.10
2022-12-08T00:14:47.603Z,73.00
2022-12-08T00:17:17.109Z,72.98
2022-12-08T00:19:46.339Z,72.79
2022-12-08T00:22:15.269Z,72.84
2022-12-08T00:24:46.501Z,72.96
2022-12-08T00:27:16.551Z,72.94
2022-12-08T00:29:45.604Z,73.06
2022-12-08T00:32:14.705Z,73.06
2022-12-08T00:34:43.224Z,73.05
2022-12-08T00:37:11.675Z,73.11
2022-12-08T00:39:39.973Z,73.09
2022-12-08T00:42:14.939Z,73.09
2022-12-08T00:44:45.821Z,73.13
2022-12-08T00:47:14.789Z,73.18
2022-12-08T00:49:43.108Z,73.11
2022-12-08T00:52:12.780Z,73.08
2022-12-08T00:54:41.244Z,73.09
2022-12-08T00:57:09.975Z,72.97
2022-12-08T00:59:39.003Z,73.04
2022-12-08T01:02:07.946Z,73.10
2022-12-08T01:04:36.265Z,73.03
2022-12-08T01:07:04.661Z,72.96
2022-12-08T01:09:33.002Z,72.97
2022-12-08T01:12:01.499Z,72.91
2022-12-08T01:14:29.990Z,72.82
2022-12-08T01:16:58.404Z,72.89
2022-12-08T01:19:26.710Z,72.83
2022-12-08T01:21:55.290Z,72.77
2022-12-08T01:24:23.744Z,72.80
2022-12-08T01:26:52.350Z,72.82
2022-12-08T01:29:20.901Z,72.78
2022-12-08T01:31:49.175Z,72.77
2022-12-08T01:34:17.482Z,72.81
2022-12-08T01:36:45.865Z,72.79
2022-12-08T01:39:16.545Z,72.81
2022-12-08T01:41:46.769Z,72.88
2022-12-08T01:44:15.307Z,72.87
2022-12-08T01:46:46.095Z,72.71
2022-12-08T01:49:30.956Z,72.79
2022-12-08T01:52:01.703Z,72.78
2022-12-08T01:54:34.463Z,72.88
2022-12-08T01:57:31.766Z,72.94
2022-12-08T02:00:06.747Z,72.91
2022-12-08T02:02:57.388Z,72.96
2022-12-08T02:05:34.903Z,72.95
2022-12-08T02:08:07.149Z,72.97
2022-12-08T02:10:39.512Z,72.99
2022-12-08T02:13:09.814Z,72.98
2022-12-08T02:15:55.764Z,72.97
2022-12-08T02:19:08.036Z,73.01
2022-12-08T02:21:49.671Z,73.10
2022-12-08T02:24:36.543Z,72.90
2022-12-08T02:27:26.174Z,72.92
2022-12-08T02:30:18.654Z,73.01
2022-12-08T02:33:02.225Z,73.09
2022-12-08T02:35:45.004Z,73.01
2022-12-08T02:38:41.325Z,73.01
2022-12-08T02:41:47.651Z,72.99
2022-12-08T02:44:27.790Z,72.90
2022-12-08T02:47:02.574Z,72.94
2022-12-08T02:49:35.511Z,72.91
2022-12-08T02:52:07.658Z,72.95
2022-12-08T02:54:37.146Z,72.90
2022-12-08T02:57:41.049Z,72.87
2022-12-08T03:00:14.116Z,73.08
2022-12-08T03:02:56.325Z,72.95
2022-12-08T03:05:24.952Z,72.90
2022-12-08T03:08:02.824Z,72.88
2022-12-08T03:10:57.907Z,72.87
2022-12-08T03:13:35.923Z,72.93
2022-12-08T03:16:08.297Z,72.91
2022-12-08T03:18:45.688Z,72.90
2022-12-08T03:21:17.884Z,72.77
2022-12-08T03:23:50.836Z,72.95
2022-12-08T03:26:29.085Z,72.91
2022-12-08T03:28:58.439Z,72.85
2022-12-08T03:31:31.719Z,72.84
2022-12-08T03:34:02.370Z,72.87
2022-12-08T03:36:30.909Z,72.90
2022-12-08T03:39:00.138Z,72.93
2022-12-08T03:41:28.553Z,72.78
2022-12-08T03:43:59.587Z,72.95
2022-12-08T03:48:57.872Z,72.98
2022-12-08T03:51:27.324Z,72.99
2022-12-08T03:53:56.308Z,72.85
2022-12-08T03:56:34.066Z,72.97
2022-12-08T03:59:03.188Z,72.94
2022-12-08T04:01:31.998Z,72.98
2022-12-08T04:04:00.352Z,73.05
2022-12-08T04:06:28.918Z,73.16
2022-12-08T04:08:57.380Z,72.94
2022-12-08T04:11:25.668Z,72.71
2022-12-08T04:13:54.038Z,72.95
2022-12-08T04:16:25.092Z,73.03
2022-12-08T04:18:54.352Z,73.12
2022-12-08T04:21:22.998Z,73.06
2022-12-08T04:23:56.117Z,73.10
2022-12-08T04:26:28.398Z,73.04
2022-12-08T04:28:57.935Z,73.08
2022-12-08T04:31:26.367Z,73.00
2022-12-08T04:33:54.813Z,72.98
2022-12-08T04:36:23.142Z,73.10
2022-12-08T04:38:51.376Z,73.08
2022-12-08T04:41:19.806Z,73.21
2022-12-08T04:43:48.177Z,73.19
2022-12-08T04:46:16.524Z,73.17
2022-12-08T04:48:44.974Z,73.17
2022-12-08T04:51:20.208Z,73.07
2022-12-08T04:53:48.814Z,73.03
2022-12-08T04:56:19.380Z,72.88
2022-12-08T04:58:47.634Z,72.99
2022-12-08T05:01:16.385Z,73.06
2022-12-08T05:03:44.751Z,72.88
2022-12-08T05:06:14.128Z,72.85
2022-12-08T05:08:43.373Z,72.93
2022-12-08T05:11:12.967Z,72.88
2022-12-08T05:13:41.528Z,72.95
2022-12-08T05:16:12.756Z,72.80
2022-12-08T05:18:42.538Z,72.83
2022-12-08T05:21:11.547Z,72.57
2022-12-08T05:23:39.811Z,72.66
2022-12-08T05:26:08.321Z,72.50
2022-12-08T05:28:41.703Z,72.51
2022-12-08T05:31:13.873Z,72.61
2022-12-08T05:33:42.660Z,72.52
2022-12-08T05:36:13.857Z,72.56
2022-12-08T05:38:43.251Z,72.62
2022-12-08T05:41:15.931Z,72.55
2022-12-08T05:43:44.893Z,72.55
2022-12-08T05:46:13.811Z,72.44
2022-12-08T05:48:42.207Z,72.42
2022-12-08T05:51:19.913Z,72.44
2022-12-08T05:53:49.796Z,72.35
2022-12-08T05:56:19.385Z,72.41
2022-12-08T05:58:48.046Z,72.56
2022-12-08T06:01:30.064Z,72.42
2022-12-08T06:04:01.123Z,72.62
2022-12-08T06:06:30.192Z,72.59
2022-12-08T06:08:58.824Z,72.65
2022-12-08T06:11:29.764Z,72.55
2022-12-08T06:13:58.954Z,72.69
2022-12-08T06:16:28.390Z,72.51
2022-12-08T06:18:57.915Z,72.46
2022-12-08T06:21:26.243Z,72.42
2022-12-08T06:23:55.558Z,72.63
2022-12-08T06:26:23.980Z,72.70
2022-12-08T06:28:52.383Z,72.35
2022-12-08T06:31:25.403Z,72.62
2022-12-08T06:33:54.959Z,72.56
2022-12-08T06:36:26.341Z,72.44
2022-12-08T06:38:55.020Z,72.63
2022-12-08T06:41:23.746Z,72.50
2022-12-08T06:43:52.373Z,72.59
2022-12-08T06:46:20.899Z,72.56
2022-12-08T06:48:50.782Z,72.60
2022-12-08T06:51:22.122Z,72.60
2022-12-08T06:53:50.748Z,72.53
2022-12-08T06:56:20.302Z,72.45
2022-12-08T06:58:52.550Z,72.45
2022-12-08T07:01:21.688Z,72.41
2022-12-08T07:03:50.237Z,72.40
2022-12-08T07:06:22.567Z,72.37
2022-12-08T07:08:51.171Z,72.39
2022-12-08T07:11:22.174Z,72.39
2022-12-08T07:13:51.305Z,72.24
2022-12-08T07:16:19.733Z,72.16
2022-12-08T07:18:48.540Z,72.29
2022-12-08T07:21:17.819Z,72.46
2022-12-08T07:23:50.169Z,72.22
2022-12-08T07:26:22.583Z,72.25
2022-12-08T07:28:50.846Z,72.31
2022-12-08T07:31:25.083Z,72.24
2022-12-08T07:33:54.123Z,71.91
2022-12-08T07:36:23.345Z,71.97
2022-12-08T07:38:53.768Z,71.97
2022-12-08T07:41:24.724Z,71.95
2022-12-08T07:43:56.355Z,71.85
2022-12-08T07:46:26.468Z,72.01
2022-12-08T07:48:55.473Z,71.93
2022-12-08T07:51:25.062Z,71.96
2022-12-08T07:53:54.853Z,71.87
2022-12-08T07:56:24.183Z,71.94
2022-12-08T07:58:52.817Z,71.78
2022-12-08T08:01:26.979Z,71.77
2022-12-08T08:03:57.461Z,71.79
2022-12-08T08:06:25.781Z,71.79
2022-12-08T08:08:54.457Z,71.91
2022-12-08T08:11:22.938Z,71.85
2022-12-08T08:13:51.868Z,71.80
2022-12-08T08:16:20.916Z,71.88
2022-12-08T08:18:50.977Z,71.66
2022-12-08T08:24:09.069Z,71.68
2022-12-08T08:26:38.136Z,71.77
2022-12-08T08:29:06.503Z,71.79
2022-12-08T08:31:34.828Z,71.69
2022-12-08T08:34:06.338Z,71.76
2022-12-08T08:36:36.004Z,71.56
2022-12-08T08:39:04.561Z,71.63
2022-12-08T08:41:33.064Z,71.52
2022-12-08T08:44:01.424Z,71.26
2022-12-08T08:46:29.766Z,71.52
2022-12-08T08:48:58.262Z,71.54
2022-12-08T08:51:26.547Z,71.63
2022-12-08T08:53:54.897Z,71.51
2022-12-08T08:56:23.280Z,71.52
2022-12-08T08:58:54.073Z,71.30
2022-12-08T09:01:28.042Z,71.30
2022-12-08T09:03:57.127Z,71.48
2022-12-08T09:06:26.157Z,71.40
2022-12-08T09:08:54.768Z,71.26
2022-12-08T09:11:23.668Z,71.14
2022-12-08T09:13:53.535Z,71.03
2022-12-08T09:16:22.561Z,71.32
2022-12-08T09:18:51.464Z,71.31
2022-12-08T09:21:26.043Z,71.16
2022-12-08T09:23:57.419Z,71.27
2022-12-08T09:26:27.576Z,71.27
2022-12-08T09:28:57.171Z,71.08
2022-12-08T09:31:25.887Z,71.16
2022-12-08T09:33:54.342Z,71.19
2022-12-08T09:36:23.120Z,71.15
2022-12-08T09:38:53.874Z,71.07
2022-12-08T09:41:37.974Z,71.27
2022-12-08T09:44:25.728Z,71.04
2022-12-08T09:46:56.235Z,71.19
2022-12-08T09:49:37.170Z,70.85
2022-12-08T09:52:14.214Z,71.05
2022-12-08T09:54:42.494Z,70.97
2022-12-08T09:57:17.145Z,70.99
2022-12-08T09:59:53.867Z,70.85
2022-12-08T10:02:25.365Z,70.94
2022-12-08T10:04:59.153Z,70.82
2022-12-08T10:07:38.879Z,70.86
2022-12-08T10:10:19.200Z,70.79
2022-12-08T10:13:15.767Z,70.80
2022-12-08T10:15:47.044Z,70.86
2022-12-08T10:18:30.044Z,70.82
2022-12-08T10:21:13.231Z,70.80
2022-12-08T10:23:46.260Z,70.90
2022-12-08T10:26:17.629Z,70.96
2022-12-08T10:28:46.289Z,70.91
2022-12-08T10:31:22.887Z,70.99
2022-12-08T10:34:10.493Z,70.76
2022-12-08T10:36:52.619Z,70.75
2022-12-08T10:39:43.958Z,70.50
2022-12-08T10:42:15.721Z,70.36
2022-12-08T10:45:02.704Z,70.52
2022-12-08T10:47:36.787Z,70.46
2022-12-08T10:50:31.599Z,70.38
2022-12-08T10:53:13.372Z,70.25
2022-12-08T10:55:47.695Z,70.34
2022-12-08T10:58:41.039Z,70.07
2022-12-08T11:01:26.517Z,70.13
2022-12-08T11:03:59.959Z,70.15
2022-12-08T11:06:37.647Z,70.32
2022-12-08T11:09:26.210Z,70.28
2022-12-08T11:12:07.344Z,70.29
2022-12-08T11:14:46.371Z,70.29
2022-12-08T11:17:26.360Z,70.25
2022-12-08T11:20:04.229Z,70.16
2022-12-08T11:22:37.639Z,70.11
2022-12-08T11:25:11.009Z,70.00
2022-12-08T11:27:43.674Z,70.15
2022-12-08T11:30:17.394Z,70.07
2022-12-08T11:33:13.981Z,69.85
2022-12-08T11:35:45.804Z,69.97
2022-12-08T11:38:21.857Z,70.03
2022-12-08T11:40:54.336Z,70.10
2022-12-08T11:43:34.937Z,70.00
2022-12-08T11:46:20.192Z,69.95
2022-12-08T11:48:51.496Z,69.86
2022-12-08T11:51:32.577Z,69.70
2022-12-08T11:54:03.709Z,69.63
2022-12-08T11:56:39.093Z,69.65
2022-12-08T11:59:16.690Z,69.70
2022-12-08T12:01:45.128Z,69.71
2022-12-08T12:04:53.875Z,69.54
2022-12-08T12:08:04.225Z,69.63
2022-12-08T12:10:58.561Z,69.65
2022-12-08T12:13:33.137Z,69.44
2022-12-08T12:16:07.483Z,69.61
2022-12-08T12:18:45.253Z,69.66
2022-12-08T12:21:26.245Z,69.85
2022-12-08T12:23:56.987Z,69.92
2022-12-08T12:26:29.628Z,69.88
2022-12-08T12:29:06.007Z,69.81
2022-12-08T12:31:37.297Z,69.89
2022-12-08T12:34:36.489Z,69.82
2022-12-08T12:37:12.618Z,70.05
2022-12-08T12:39:56.061Z,70.09
2022-12-08T12:42:44.355Z,69.92
2022-12-08T12:45:20.180Z,69.81
2022-12-08T12:47:56.696Z,69.92
2022-12-08T12:50:34.509Z,70.00
2022-12-08T12:53:19.004Z,70.02
2022-12-08T12:55:57.767Z,69.95
2022-12-08T12:58:32.021Z,69.85
2022-12-08T13:01:15.573Z,69.98
2022-12-08T13:04:05.910Z,70.05
2022-12-08T13:06:42.369Z,70.08
2022-12-08T13:09:24.268Z,70.08
2022-12-08T13:11:59.356Z,70.11
2022-12-08T13:14:33.227Z,70.24
2022-12-08T13:17:05.150Z,70.18
2022-12-08T13:19:38.828Z,70.17
2022-12-08T13:22:45.214Z,70.18
2022-12-08T13:25:48.125Z,70.20
2022-12-08T13:28:16.657Z,70.37
2022-12-08T13:30:48.968Z,70.34
2022-12-08T13:33:23.867Z,70.40
2022-12-08T13:36:02.481Z,70.20
2022-12-08T13:38:34.242Z,70.23
2022-12-08T13:41:08.148Z,70.39
2022-12-08T13:44:02.506Z,70.36
2022-12-08T13:47:16.810Z,70.25
2022-12-08T13:58:40.433Z,70.49
2022-12-08T14:01:23.699Z,70.43
2022-12-08T14:06:57.135Z,70.50
2022-12-08T14:09:29.172Z,70.31
2022-12-08T14:12:18.331Z,70.36
2022-12-08T14:15:05.540Z,70.51
2022-12-08T14:17:34.179Z,70.49
2022-12-08T14:20:19.793Z,70.73
2022-12-08T14:22:49.076Z,70.43
2022-12-08T14:25:18.482Z,70.56
2022-12-08T14:27:48.054Z,70.57
2022-12-08T14:30:28.200Z,70.44
2022-12-08T14:32:59.012Z,70.34
2022-12-08T14:35:30.306Z,70.69
2022-12-08T14:38:01.610Z,70.62
2022-12-08T14:40:38.994Z,70.60
2022-12-08T14:43:10.364Z,70.67
2022-12-08T14:45:41.839Z,70.69
2022-12-08T14:48:31.653Z,70.59
2022-12-08T14:51:04.143Z,70.75
2022-12-08T14:53:52.994Z,70.70
2022-12-08T14:56:38.730Z,70.53
2022-12-08T14:59:19.164Z,70.50
2022-12-08T15:01:50.146Z,70.58
2022-12-08T15:04:23.318Z,70.38
2022-12-08T15:07:14.257Z,70.59
2022-12-08T15:09:45.424Z,70.75
2022-12-08T15:12:13.605Z,70.78
2022-12-08T15:14:54.202Z,70.82
2022-12-08T15:17:42.291Z,70.84
2022-12-08T15:20:30.156Z,70.84
2022-12-08T15:23:03.914Z,71.00
2022-12-08T15:25:36.298Z,70.96
2022-12-08T15:28:04.997Z,70.81
2022-12-08T15:30:34.484Z,70.74
2022-12-08T15:33:02.843Z,70.94
2022-12-08T15:35:34.658Z,71.12
2022-12-08T15:38:06.642Z,71.10
2022-12-08T15:40:34.991Z,71.13
2022-12-08T15:43:03.279Z,71.16
2022-12-08T15:45:32.747Z,71.29
2022-12-08T15:48:01.474Z,71.19
2022-12-08T15:50:29.705Z,71.27
2022-12-08T15:52:58.316Z,71.15
2022-12-08T15:55:27.143Z,71.05
2022-12-08T16:00:53.828Z,71.17
2022-12-08T16:04:19.848Z,71.11
2022-12-08T16:09:21.133Z,71.16
2022-12-08T16:12:10.064Z,71.32
2022-12-08T16:17:28.775Z,71.23
2022-12-08T16:19:57.348Z,71.17
2022-12-08T16:25:19.882Z,71.20
2022-12-08T16:28:03.027Z,71.34
2022-12-08T16:30:37.021Z,71.32
2022-12-08T16:33:05.525Z,71.28
2022-12-08T16:35:33.990Z,71.19
2022-12-08T16:38:05.097Z,71.35
2022-12-08T16:40:53.850Z,71.34
2022-12-08T16:43:22.243Z,71.29
2022-12-08T16:45:50.707Z,71.39
2022-12-08T16:48:20.648Z,71.49
2022-12-08T16:50:49.119Z,71.44
2022-12-08T16:53:17.394Z,71.28
2022-12-08T16:55:50.299Z,71.51
2022-12-08T16:58:18.697Z,71.38
2022-12-08T17:00:47.481Z,71.44
2022-12-08T17:03:16.815Z,71.47
2022-12-08T17:05:45.277Z,71.41
2022-12-08T17:08:14.137Z,71.47
2022-12-08T17:10:42.961Z,71.33
2022-12-08T17:13:13.058Z,71.47
2022-12-08T17:15:41.364Z,71.41
2022-12-08T17:18:09.714Z,71.60
2022-12-08T17:20:40.441Z,71.49
2022-12-08T17:23:08.732Z,71.50
2022-12-08T17:25:37.431Z,71.46
2022-12-08T17:28:06.135Z,71.34
2022-12-08T17:30:34.466Z,71.42
2022-12-08T17:33:02.838Z,71.50
2022-12-08T17:35:31.375Z,71.39
2022-12-08T17:37:59.817Z,71.49
2022-12-08T17:40:28.504Z,71.49
2022-12-08T17:42:57.016Z,71.51
2022-12-08T17:45:25.503Z,71.36
2022-12-08T17:47:53.748Z,71.50
2022-12-08T17:50:22.104Z,71.62
2022-12-08T17:52:51.293Z,71.51
2022-12-08T17:55:19.708Z,71.69
2022-12-08T17:57:48.016Z,71.49
2022-12-08T18:00:16.582Z,71.52
2022-12-08T18:02:44.928Z,71.61
2022-12-08T18:05:16.319Z,71.63
2022-12-08T18:07:44.702Z,71.49
2022-12-08T18:10:13.383Z,71.63
2022-12-08T18:12:42.116Z,71.68
2022-12-08T18:15:16.078Z,71.55
2022-12-08T18:17:45.196Z,71.50
2022-12-08T18:20:14.106Z,71.53
2022-12-08T18:22:42.822Z,71.55
2022-12-08T18:25:12.196Z,71.48
2022-12-08T18:27:43.215Z,71.59
2022-12-08T18:30:17.318Z,71.47
2022-12-08T18:32:46.076Z,71.57
2022-12-08T18:35:14.812Z,71.63
2022-12-08T18:37:43.206Z,71.60
2022-12-08T18:40:12.425Z,71.54
2022-12-08T18:42:40.880Z,71.61
2022-12-08T18:45:09.673Z,71.52
2022-12-08T18:47:40.390Z,71.64
2022-12-08T18:50:11.654Z,71.68
2022-12-08T18:52:40.491Z,71.74
2022-12-08T18:55:09.732Z,71.66
2022-12-08T18:57:43.358Z,71.68
2022-12-08T19:00:15.303Z,71.64
2022-12-08T19:02:43.704Z,71.71
2022-12-08T19:05:13.801Z,71.57
2022-12-08T19:07:43.038Z,71.53
2022-12-08T19:10:11.911Z,71.75
2022-12-08T19:12:40.446Z,71.73
2022-12-08T19:15:09.620Z,71.73
2022-12-08T19:17:38.010Z,71.60
2022-12-08T19:20:07.602Z,71.72
2022-12-08T19:22:36.257Z,71.73
2022-12-08T19:25:05.522Z,71.61
2022-12-08T19:27:34.299Z,71.57
2022-12-08T19:30:03.470Z,71.67
2022-12-08T19:32:32.416Z,71.52
2022-12-08T19:35:00.991Z,71.62
2022-12-08T19:37:30.415Z,71.61
2022-12-08T19:40:18.218Z,71.66
2022-12-08T19:43:05.607Z,71.60
2022-12-08T19:45:35.789Z,71.55
2022-12-08T19:48:04.961Z,71.67
2022-12-08T19:50:36.474Z,71.63
2022-12-08T19:53:08.312Z,71.51
2022-12-08T19:55:38.100Z,71.43
2022-12-08T19:58:07.480Z,71.50
2022-12-08T20:00:37.188Z,71.55
2022-12-08T20:03:06.591Z,71.31
2022-12-08T20:05:37.099Z,71.36
2022-12-08T20:08:05.780Z,71.11
2022-12-08T20:10:40.539Z,71.23
2022-12-08T20:13:29.205Z,71.15
2022-12-08T20:15:58.418Z,71.16
2022-12-08T20:18:28.826Z,71.03
2022-12-08T20:20:57.264Z,71.11
2022-12-08T20:23:25.977Z,71.02
2022-12-08T20:25:54.289Z,70.97
2022-12-08T20:28:22.959Z,70.96
2022-12-08T20:30:51.865Z,70.88
2022-12-08T20:33:20.717Z,71.08
2022-12-08T20:36:01.639Z,70.98
2022-12-08T20:38:30.581Z,71.01
2022-12-08T20:40:59.642Z,70.89
2022-12-08T20:43:28.492Z,70.96
2022-12-08T20:45:57.200Z,71.03
2022-12-08T20:48:25.915Z,70.93
2022-12-08T20:50:55.356Z,70.82
2022-12-08T20:53:24.024Z,70.88
2022-12-08T20:55:53.301Z,71.15
2022-12-08T20:58:22.155Z,71.08
2022-12-08T21:00:51.204Z,71.26
2022-12-08T21:03:19.764Z,71.16
2022-12-08T21:05:51.487Z,71.23
2022-12-08T21:08:20.532Z,71.24
2022-12-08T21:10:57.012Z,71.37
2022-12-08T21:13:25.670Z,71.27
2022-12-08T21:15:54.505Z,71.29
2022-12-08T21:18:24.186Z,71.44
2022-12-08T21:20:53.287Z,71.42
2022-12-08T21:23:21.759Z,71.41
2022-12-08T21:25:50.365Z,71.34
2022-12-08T21:28:19.273Z,71.37
2022-12-08T21:30:47.799Z,71.39
2022-12-08T21:33:17.863Z,71.37
2022-12-08T21:35:46.559Z,71.24
2022-12-08T21:38:15.176Z,71.32
2022-12-08T21:40:43.599Z,71.39
2022-12-08T21:43:12.159Z,71.28
2022-12-08T21:45:40.585Z,71.28
2022-12-08T21:48:11.723Z,71.38
2022-12-08T21:50:40.801Z,71.43
2022-12-08T21:53:09.458Z,71.18
2022-12-08T21:55:39.150Z,71.30
2022-12-08T21:58:07.564Z,71.14
2022-12-08T22:00:36.160Z,71.28
2022-12-08T22:03:05.492Z,71.29
2022-12-08T22:05:35.826Z,71.26
2022-12-08T22:08:04.591Z,71.25
2022-12-08T22:10:33.626Z,71.32
2022-12-08T22:13:02.604Z,71.35
2022-12-08T22:15:31.087Z,71.15
2022-12-08T22:17:59.774Z,71.20
2022-12-08T22:20:28.234Z,71.30
2022-12-08T22:22:56.747Z,71.45
2022-12-08T22:25:25.299Z,71.11
2022-12-08T22:27:53.943Z,71.13
2022-12-08T22:30:22.745Z,71.20
2022-12-08T22:32:51.074Z,71.19
2022-12-08T22:35:19.442Z,71.23
2022-12-08T22:37:52.229Z,71.12
2022-12-08T22:40:20.688Z,71.21
2022-12-08T22:42:49.137Z,71.17
2022-12-08T22:45:17.575Z,71.20
2022-12-08T22:47:46.053Z,71.18
2022-12-08T22:50:14.537Z,71.17
2022-12-08T22:52:43.083Z,71.17
2022-12-08T22:55:11.483Z,71.10
2022-12-08T22:57:39.888Z,71.20
2022-12-08T23:00:11.947Z,71.17
2022-12-08T23:02:40.607Z,71.19
2022-12-08T23:05:09.854Z,71.11
2022-12-08T23:07:39.660Z,71.22
2022-12-08T23:10:09.720Z,71.30
2022-12-08T23:12:38.461Z,71.32
2022-12-08T23:15:07.332Z,71.28
2022-12-08T23:17:35.995Z,71.25
2022-12-08T23:20:05.453Z,71.18
2022-12-08T23:22:52.021Z,71.22
2022-12-08T23:25:42.160Z,71.23
2022-12-08T23:28:25.810Z,71.17
2022-12-08T23:30:53.992Z,71.23
2022-12-08T23:33:22.204Z,71.24
2022-12-08T23:35:57.710Z,71.31
2022-12-08T23:38:26.413Z,71.29
2022-12-08T23:40:54.632Z,71.12
2022-12-08T23:43:23.422Z,71.32
2022-12-08T23:45:51.729Z,71.40
2022-12-08T23:48:20.119Z,71.31
2022-12-08T23:50:48.987Z,71.22
2022-12-08T23:53:17.527Z,71.16
2022-12-08T23:55:46.035Z,71.29
2022-12-08T23:58:14.342Z,71.12
